METAR Data
IDs: Format: Raw Decoded Include TAF

Data at: 0237 UTC 25 Jan 2020

PAMK 250156Z AUTO 36011KT 10SM FEW018 M22/M24 A3022 RMK AO2 SLP235 T12171244 FZRANO
PAMK 250056Z AUTO 31007KT 10SM CLR M22/M26 A3022 RMK AO2 SNE12 SLP235 P0000 T12221256 FZRANO
PAMK 242356Z AUTO 31006KT 7SM -SN FEW018 M22/M24 A3022 RMK AO2 SNB43 SLP236 P0000 60000 T12171244 11189 21222 56004 FZRANO
PAMK 242256Z AUTO 03008KT 10SM CLR M19/M23 A3022 RMK AO2 SLP237 T11891228 FZRANO
PAMK 242156Z AUTO 02010KT 10SM CLR M19/M23 A3022 RMK AO2 SLP237 T11941233 FZRANO
PAMK 242056Z AUTO 03013KT 10SM CLR M21/M24 A3023 RMK AO2 SLP240 T12061239 51004 FZRANO
PAMK 241956Z AUTO 03013KT 10SM CLR M22/M24 A3023 RMK AO2 SLP240 T12171239 FZRANO
PAMK 241856Z AUTO 03012KT 10SM SCT017 M22/M24 A3023 RMK AO2 SLP239 T12221244 FZRANO
PAMK 241756Z AUTO 03013KT 10SM SCT017 M21/M24 A3022 RMK AO2 SLP236 60000 T12111239 11206 21222 53000 FZRANO
PAMK 241726Z AUTO 03015KT 10SM SCT019 M21/M24 A3022 RMK AO2 FZRANO
PAMK 241656Z AUTO 03014KT 9SM OVC017 M21/M23 A3022 RMK AO2 SNE05 SLP237 P0000 T12061233 FZRANO
PAMK 241646Z AUTO 03016KT 10SM BKN017 M21/M24 A3022 RMK AO2 SNE05 P0000 FZRANO
PAMK 241556Z AUTO 03016KT 10SM -SN CLR M21/M24 A3021 RMK AO2 SNB1458E34B54 SLP233 P0000 T12111239 FZRANO
PAMK 241456Z AUTO 04012KT 10SM CLR M21/M24 A3022 RMK AO2 SLP235 T12111239 58010 FZRANO
PAMK 241256Z AUTO 01012KT 10SM CLR M22/M24 A3024 RMK AO2 SLP245 T12171244 FZRANO
PAMK 240056Z AUTO 36007KT 9SM -SN OVC018 M14/M17 A3016 RMK AO2 SLP217 P0000 T11391167 FZRANO
PAMK 232356Z AUTO 36007KT 9SM -SN OVC020 M13/M16 A3015 RMK AO2 SLP213 P0000 60000 T11331161 11128 21133 51015 FZRANO
PAMK 232256Z AUTO 02008KT 8SM -SN OVC020 M13/M16 A3014 RMK AO2 SLP209 P0000 T11331161 FZRANO
PAMK 232210Z AUTO 03010KT 9SM -SN BKN018 OVC025 M13/M16 A3013 RMK AO2 P0000 FZRANO
PAMK 232156Z AUTO 03009KT 2 1/2SM -SN BR OVC018 M13/M15 A3013 RMK AO2 SLP203 P0000 T11281150 FZRANO
PAMK 232138Z AUTO 04007KT 5SM -SN BR BKN020 OVC028 M13/M16 A3012 RMK AO2 P0000 FZRANO
PAMK 232128Z AUTO 05008KT 2 1/2SM -SN BR BKN020 OVC028 M13/M16 A3012 RMK AO2 P0000 FZRANO
PAMK 232056Z AUTO 05008KT 3SM -SN BR FEW016 BKN029 OVC050 M13/M15 A3011 RMK AO2 SLP198 P0000 60000 T11331150 51022 FZRANO
PAMK 232043Z AUTO 05007KT 2 1/2SM -SN BR SCT016 BKN031 OVC050 M13/M16 A3011 RMK AO2 VIS 1 1/2V4 P0000 FZRANO
PAMK 232009Z AUTO 06008KT 5SM -SN BR OVC027 M13/M16 A3010 RMK AO2 P0000 FZRANO
PAMK 231956Z AUTO 06008KT 4SM -SN BR FEW015 OVC031 M13/M16 A3010 RMK AO2 SLP194 P0000 T11331156 FZRANO
PAMK 231856Z AUTO 06012KT 8SM -SN OVC017 M13/M16 A3006 RMK AO2 SLP183 P0000 T11331156 FZRANO
PAMK 231843Z AUTO 05013KT 9SM -SN OVC015 M13/M15 A3006 RMK AO2 P0000 FZRANO
PAMK 231756Z AUTO 28007KT 4SM -SN BR OVC013 M13/M14 A3005 RMK AO2 SLP177 P0000 60000 T11281144 11128 21144 51008 FZRANO
PAMK 231656Z AUTO 26009KT 5SM -SN BR OVC013 M13/M15 A3003 RMK AO2 SLP172 P0000 T11331150 FZRANO
PAMK 231556Z AUTO 27007KT 9SM -SN OVC013 M13/M15 A3002 RMK AO2 SLP169 P0000 T11331150 FZRANO
PAMK 231520Z AUTO 28008KT 8SM -SN SCT012 OVC020 M13/M15 A3002 RMK AO2 P0000 FZRANO
PAMK 231456Z AUTO 24007KT 6SM -SN BR OVC012 M14/M16 A3001 RMK AO2 SLP165 P0000 60000 T11391156 53013 FZRANO